Terminal Aerodrome Forecast
Issued by NWS

Current Version | Previous Version | Graphics & Text | Print | Product List | Glossary On
Versions: 1 2 3 4 5 6 7 8 9 10 11 12 13 14 15 16 17 18 19 20 21 22
970
FTUS41 KILN 242335
TAFLCK
TAF
KLCK 242335Z 2500/2524 03006KT P6SM SCT050
     FM250200 06004KT P6SM SCT250
     FM251400 07005KT P6SM FEW050=

USA.gov is the U.S. government's official web portal to all federal, state and local government web resources and services.